createdAt,value
2017-09-20T00:02:03.878Z,15.03
2017-09-20T00:04:35.000Z,15.05
2017-09-20T00:07:06.270Z,15.04
2017-09-20T00:09:37.375Z,15.05
2017-09-20T00:12:08.803Z,15.05
2017-09-20T00:14:40.166Z,15.09
2017-09-20T00:17:11.220Z,15.13
2017-09-20T00:19:42.678Z,15.13
2017-09-20T00:23:16.375Z,15.14
2017-09-20T00:25:47.692Z,15.10
2017-09-20T00:28:19.056Z,15.07
2017-09-20T00:30:50.267Z,15.05
2017-09-20T00:33:21.350Z,15.04
2017-09-20T00:35:52.787Z,15.02
2017-09-20T00:38:23.877Z,14.99
2017-09-20T00:40:55.045Z,14.97
2017-09-20T00:43:26.268Z,14.96
2017-09-20T00:45:57.713Z,14.93
2017-09-20T00:48:29.407Z,14.93
2017-09-20T00:51:02.260Z,14.96
2017-09-20T00:53:33.318Z,14.95
2017-09-20T00:56:05.405Z,14.94
2017-09-20T00:58:37.983Z,14.93
2017-09-20T01:01:09.374Z,14.91
2017-09-20T01:03:40.471Z,14.89
2017-09-20T01:06:11.614Z,14.84
2017-09-20T01:08:43.062Z,14.81
2017-09-20T01:11:14.297Z,14.81
2017-09-20T01:13:45.655Z,14.82
2017-09-20T01:16:16.822Z,14.82
2017-09-20T01:18:47.898Z,14.82
2017-09-20T01:23:30.711Z,14.81
2017-09-20T01:26:02.708Z,14.81
2017-09-20T01:28:34.134Z,14.83
2017-09-20T01:31:05.286Z,14.83
2017-09-20T01:33:36.612Z,14.83
2017-09-20T01:36:07.707Z,14.85
2017-09-20T01:38:39.084Z,14.82
2017-09-20T01:41:10.201Z,14.81
2017-09-20T01:43:41.549Z,14.79
2017-09-20T01:46:12.621Z,14.78
2017-09-20T01:48:43.969Z,14.82
2017-09-20T01:51:15.461Z,14.83
2017-09-20T01:53:47.727Z,14.82
2017-09-20T01:56:18.810Z,14.80
2017-09-20T01:58:50.605Z,14.78
2017-09-20T02:01:21.708Z,14.78
2017-09-20T02:03:52.800Z,14.79
2017-09-20T02:06:24.263Z,14.81
2017-09-20T02:08:55.368Z,14.82
2017-09-20T02:11:26.492Z,14.82
2017-09-20T02:13:57.795Z,14.82
2017-09-20T02:16:29.178Z,14.82
2017-09-20T02:19:00.247Z,14.80
2017-09-20T02:21:31.320Z,14.74
2017-09-20T02:24:03.211Z,14.69
2017-09-20T02:26:34.588Z,14.67
2017-09-20T02:29:05.773Z,14.65
2017-09-20T02:31:36.857Z,14.62
2017-09-20T02:34:07.950Z,14.59
2017-09-20T02:36:39.419Z,14.53
2017-09-20T02:39:10.672Z,14.48
2017-09-20T02:41:41.795Z,14.43
2017-09-20T02:44:12.949Z,14.40
2017-09-20T02:46:44.583Z,14.39
2017-09-20T02:49:17.164Z,14.35
2017-09-20T02:52:51.137Z,14.33
2017-09-20T02:55:23.127Z,14.26
2017-09-20T02:57:54.501Z,14.26
2017-09-20T03:00:26.278Z,14.25
2017-09-20T03:02:57.343Z,14.20
2017-09-20T03:05:28.571Z,14.14
2017-09-20T03:07:59.628Z,14.06
2017-09-20T03:10:30.701Z,13.99
2017-09-20T03:13:01.769Z,13.85
2017-09-20T03:15:34.408Z,13.75
2017-09-20T03:18:06.330Z,13.68
2017-09-20T03:20:37.588Z,13.63
2017-09-20T03:23:08.971Z,13.54
2017-09-20T03:25:40.077Z,13.44
2017-09-20T03:28:11.503Z,13.38
2017-09-20T03:30:43.089Z,13.27
2017-09-20T03:33:14.156Z,13.19
2017-09-20T03:35:48.631Z,13.14
2017-09-20T03:38:20.158Z,13.06
2017-09-20T03:40:51.307Z,12.98
2017-09-20T03:43:23.055Z,12.93
2017-09-20T03:45:54.712Z,12.83
2017-09-20T03:48:25.782Z,12.77
2017-09-20T03:50:58.978Z,12.73
2017-09-20T03:53:30.043Z,12.71
2017-09-20T03:56:02.070Z,12.72
2017-09-20T03:58:33.133Z,12.71
2017-09-20T04:01:04.823Z,12.69
2017-09-20T04:03:35.922Z,12.67
2017-09-20T04:06:07.008Z,12.68
2017-09-20T04:08:38.359Z,12.67
2017-09-20T04:11:09.411Z,12.61
2017-09-20T04:13:40.488Z,12.58
2017-09-20T04:16:11.909Z,12.57
2017-09-20T04:18:43.097Z,12.56
2017-09-20T04:21:14.403Z,12.53
2017-09-20T04:23:46.158Z,12.51
2017-09-20T04:26:17.294Z,12.47
2017-09-20T04:28:49.008Z,12.42
2017-09-20T04:31:21.436Z,12.38
2017-09-20T04:33:52.569Z,12.38
2017-09-20T04:36:23.789Z,12.39
2017-09-20T04:38:55.152Z,12.42
2017-09-20T04:41:26.565Z,12.44
2017-09-20T04:43:57.737Z,12.42
2017-09-20T04:46:28.986Z,12.37
2017-09-20T04:49:00.065Z,12.36
2017-09-20T04:51:31.723Z,12.35
2017-09-20T04:54:03.395Z,12.38
2017-09-20T04:56:34.627Z,12.43
2017-09-20T04:59:05.685Z,12.50
2017-09-20T05:01:37.124Z,12.55
2017-09-20T05:04:08.209Z,12.60
2017-09-20T05:06:39.604Z,12.58
2017-09-20T05:09:10.685Z,12.59
2017-09-20T05:11:42.126Z,12.54
2017-09-20T05:14:13.220Z,12.53
2017-09-20T05:16:45.011Z,12.53
2017-09-20T05:19:16.204Z,12.52
2017-09-20T05:21:49.289Z,12.49
2017-09-20T05:24:20.641Z,12.44
2017-09-20T05:26:51.822Z,12.46
2017-09-20T05:29:22.911Z,12.47
2017-09-20T05:32:03.780Z,12.57
2017-09-20T05:34:35.042Z,12.69
2017-09-20T05:37:06.773Z,12.76
2017-09-20T05:39:37.893Z,12.85
2017-09-20T05:42:10.016Z,12.96
2017-09-20T05:44:41.112Z,13.10
2017-09-20T05:47:12.662Z,13.16
2017-09-20T05:49:44.041Z,13.24
2017-09-20T05:52:17.497Z,13.31
2017-09-20T05:54:50.498Z,13.33
2017-09-20T05:57:23.503Z,13.31
2017-09-20T05:59:57.673Z,13.35
2017-09-20T06:02:28.917Z,13.41
2017-09-20T06:04:59.969Z,13.49
2017-09-20T06:07:31.319Z,13.56
2017-09-20T06:10:03.739Z,13.63
2017-09-20T06:12:34.921Z,13.75
2017-09-20T06:15:06.300Z,13.78
2017-09-20T06:17:37.461Z,13.96
2017-09-20T06:20:08.571Z,14.08
2017-09-20T06:22:40.108Z,14.08
2017-09-20T06:25:11.203Z,13.98
2017-09-20T06:27:42.306Z,13.85
2017-09-20T06:30:14.742Z,13.78
2017-09-20T06:32:46.822Z,13.76
2017-09-20T06:35:17.904Z,13.85
2017-09-20T06:37:49.937Z,13.97
2017-09-20T06:40:21.384Z,13.98
2017-09-20T06:42:52.576Z,14.04
2017-09-20T06:45:23.946Z,14.04
2017-09-20T06:47:55.431Z,14.08
2017-09-20T06:50:27.032Z,14.11
2017-09-20T06:52:58.591Z,14.22
2017-09-20T06:55:29.863Z,14.33
2017-09-20T06:58:01.251Z,14.51
2017-09-20T07:00:33.461Z,14.59
2017-09-20T07:03:05.647Z,14.77
2017-09-20T07:05:36.754Z,15.23
2017-09-20T07:08:07.859Z,15.53
2017-09-20T07:10:38.996Z,15.66
2017-09-20T07:13:10.148Z,15.92
2017-09-20T07:15:41.532Z,15.62
2017-09-20T07:18:14.203Z,15.73
2017-09-20T07:20:45.463Z,15.63
2017-09-20T07:23:16.691Z,15.45
2017-09-20T07:25:48.660Z,15.38
2017-09-20T07:28:20.346Z,15.45
2017-09-20T07:30:51.445Z,15.16
2017-09-20T07:33:22.743Z,15.15
2017-09-20T07:35:54.121Z,15.20
2017-09-20T07:38:25.586Z,15.12
2017-09-20T07:40:56.695Z,15.09
2017-09-20T07:43:28.554Z,14.91
2017-09-20T07:45:59.608Z,14.90
2017-09-20T07:48:30.676Z,14.92
2017-09-20T07:51:03.051Z,14.96
2017-09-20T07:54:37.269Z,14.90
2017-09-20T07:57:08.406Z,14.88
2017-09-20T07:59:40.055Z,14.92
2017-09-20T08:02:12.113Z,15.04
2017-09-20T08:04:43.376Z,15.07
2017-09-20T08:07:15.162Z,15.12
2017-09-20T08:09:47.565Z,15.43
2017-09-20T08:12:18.848Z,15.66
2017-09-20T08:14:53.339Z,16.15
2017-09-20T08:17:28.408Z,16.54
2017-09-20T08:20:03.577Z,16.71
2017-09-20T08:22:34.987Z,17.03
2017-09-20T08:25:07.329Z,17.24
2017-09-20T08:27:39.095Z,17.26
2017-09-20T08:30:10.565Z,17.34
2017-09-20T08:32:41.625Z,17.46
2017-09-20T08:35:13.115Z,17.54
2017-09-20T08:40:51.470Z,17.43
2017-09-20T08:43:25.369Z,17.35
2017-09-20T08:45:56.819Z,17.32
2017-09-20T08:48:29.436Z,17.26
2017-09-20T08:51:00.582Z,17.06
2017-09-20T08:53:34.963Z,17.31
2017-09-20T08:56:11.212Z,17.55
2017-09-20T08:58:44.950Z,17.56
2017-09-20T09:01:17.665Z,17.62
2017-09-20T09:03:52.213Z,17.61
2017-09-20T09:06:25.169Z,18.02
2017-09-20T09:08:58.656Z,18.28
2017-09-20T09:14:28.806Z,18.16
2017-09-20T09:17:00.289Z,18.45
2017-09-20T09:19:32.246Z,18.59
2017-09-20T09:22:04.832Z,19.02
2017-09-20T09:24:36.265Z,19.53
2017-09-20T09:27:07.375Z,19.91
2017-09-20T09:29:38.571Z,20.31
2017-09-20T09:32:12.193Z,20.54
2017-09-20T09:34:47.048Z,21.05
2017-09-20T09:37:18.540Z,21.82
2017-09-20T09:39:51.433Z,21.88
2017-09-20T09:42:22.817Z,21.21
2017-09-20T09:44:54.289Z,20.56
2017-09-20T09:47:25.417Z,20.65
2017-09-20T09:49:56.788Z,21.49
2017-09-20T09:52:27.898Z,22.54
2017-09-20T09:54:58.988Z,23.06
2017-09-20T09:57:30.100Z,23.18
2017-09-20T10:00:02.762Z,22.45
2017-09-20T10:02:34.248Z,21.67
2017-09-20T10:05:07.229Z,21.65
2017-09-20T10:07:40.587Z,21.76
2017-09-20T10:10:16.841Z,22.23
2017-09-20T10:12:48.504Z,22.15
2017-09-20T10:15:19.941Z,22.23
2017-09-20T10:17:51.124Z,22.76
2017-09-20T10:20:22.332Z,23.58
2017-09-20T10:22:53.740Z,25.02
2017-09-20T10:25:24.829Z,24.96
2017-09-20T10:27:55.981Z,25.61
2017-09-20T10:30:27.453Z,30.14
2017-09-20T10:32:58.635Z,32.01
2017-09-20T10:35:33.111Z,30.37
2017-09-20T10:38:08.066Z,29.03
2017-09-20T10:43:38.493Z,34.46
2017-09-20T10:46:12.389Z,37.77
2017-09-20T10:48:43.569Z,35.62
2017-09-20T10:51:16.894Z,31.97
2017-09-20T10:56:53.329Z,26.05
2017-09-20T10:59:24.540Z,25.69
2017-09-20T11:01:57.194Z,26.60
2017-09-20T11:04:29.348Z,25.50
2017-09-20T11:07:00.545Z,24.47
2017-09-20T11:09:32.969Z,24.00
2017-09-20T11:12:04.961Z,23.40
2017-09-20T11:14:36.555Z,23.29
2017-09-20T11:17:08.072Z,23.33
2017-09-20T11:19:39.463Z,23.49
2017-09-20T11:22:12.332Z,23.60
2017-09-20T11:27:56.007Z,26.26
2017-09-20T11:30:30.456Z,25.08
2017-09-20T11:33:06.440Z,24.94
2017-09-20T11:35:46.622Z,26.60
2017-09-20T11:38:23.817Z,28.79
2017-09-20T11:41:05.688Z,30.06
2017-09-20T11:43:38.271Z,31.63
2017-09-20T11:46:10.091Z,30.15
2017-09-20T11:48:41.247Z,29.54
2017-09-20T11:51:12.311Z,31.68
2017-09-20T11:53:44.252Z,33.63
2017-09-20T11:56:15.369Z,34.51
2017-09-20T11:58:46.685Z,33.74
2017-09-20T12:01:21.590Z,31.39
2017-09-20T12:03:53.075Z,30.05
2017-09-20T12:06:28.646Z,32.62
2017-09-20T12:09:00.197Z,37.62
2017-09-20T12:11:44.424Z,41.03
2017-09-20T12:14:20.320Z,39.16
2017-09-20T12:19:57.329Z,38.39
2017-09-20T12:22:32.933Z,38.69
2017-09-20T12:25:05.769Z,40.15
2017-09-20T12:27:37.525Z,45.06
2017-09-20T12:30:09.136Z,46.04
2017-09-20T12:32:40.279Z,40.42
2017-09-20T12:35:17.421Z,35.68
2017-09-20T12:37:48.470Z,33.32
2017-09-20T12:40:19.751Z,31.77
2017-09-20T12:42:50.925Z,31.22
2017-09-20T12:45:28.595Z,35.01
2017-09-20T12:51:06.751Z,36.23
2017-09-20T12:53:38.333Z,32.39
2017-09-20T12:56:09.613Z,30.81
2017-09-20T12:58:41.507Z,29.45
2017-09-20T13:01:13.563Z,28.17
2017-09-20T13:03:46.238Z,25.77
2017-09-20T13:06:17.390Z,24.56
2017-09-20T13:08:48.671Z,23.57
2017-09-20T13:11:21.106Z,23.04
2017-09-20T13:13:52.654Z,22.59
2017-09-20T13:16:26.274Z,22.37
2017-09-20T13:18:57.629Z,22.20
2017-09-20T13:21:29.467Z,22.05
2017-09-20T13:24:02.190Z,21.95
2017-09-20T13:26:33.493Z,21.94
2017-09-20T13:29:06.926Z,22.56
2017-09-20T13:31:38.656Z,23.99
2017-09-20T13:34:09.851Z,26.11
2017-09-20T13:36:41.038Z,31.64
2017-09-20T13:39:12.510Z,34.70
2017-09-20T13:41:43.596Z,36.78
2017-09-20T13:44:14.821Z,35.07
2017-09-20T13:46:46.277Z,32.51
2017-09-20T13:49:17.469Z,29.75
2017-09-20T13:51:48.855Z,28.21
2017-09-20T13:54:19.968Z,27.55
2017-09-20T13:56:51.077Z,26.78
2017-09-20T13:59:22.453Z,26.87
2017-09-20T14:01:53.860Z,27.42
2017-09-20T14:04:26.826Z,27.83
2017-09-20T14:06:58.405Z,26.33
2017-09-20T14:09:30.034Z,25.66
2017-09-20T14:12:02.420Z,26.69
2017-09-20T14:14:33.515Z,32.20
2017-09-20T14:17:04.980Z,37.48
2017-09-20T14:19:36.057Z,40.05
2017-09-20T14:22:07.140Z,40.19
2017-09-20T14:24:38.509Z,39.53
2017-09-20T14:27:09.833Z,41.17
2017-09-20T14:29:40.915Z,42.01
2017-09-20T14:32:12.790Z,41.11
2017-09-20T14:34:44.154Z,41.90
2017-09-20T14:37:15.577Z,43.66
2017-09-20T14:39:46.782Z,43.35
2017-09-20T14:42:18.138Z,44.60
2017-09-20T14:44:49.774Z,43.61
2017-09-20T14:47:21.077Z,44.10
2017-09-20T14:49:52.217Z,43.67
2017-09-20T14:52:24.315Z,42.33
2017-09-20T14:54:55.735Z,43.21
2017-09-20T14:57:28.840Z,43.45
2017-09-20T15:00:00.147Z,43.09
2017-09-20T15:02:31.717Z,42.83
2017-09-20T15:05:03.424Z,42.87
2017-09-20T15:07:34.567Z,42.68
2017-09-20T15:10:06.179Z,42.30
2017-09-20T15:12:37.228Z,42.45
2017-09-20T15:15:08.391Z,43.31
2017-09-20T15:17:39.779Z,41.06
2017-09-20T15:20:11.026Z,36.42
2017-09-20T15:22:42.462Z,32.92
2017-09-20T15:25:13.891Z,30.47
2017-09-20T15:27:47.854Z,28.97
2017-09-20T15:30:19.294Z,27.06
2017-09-20T15:32:51.031Z,26.52
2017-09-20T15:35:22.098Z,26.08
2017-09-20T15:39:24.985Z,25.70
2017-09-20T15:41:56.187Z,25.15
2017-09-20T15:44:30.212Z,25.54
2017-09-20T15:47:01.427Z,26.38
2017-09-20T15:49:32.919Z,27.45
2017-09-20T15:52:05.595Z,30.98
2017-09-20T15:54:38.224Z,32.62
2017-09-20T15:57:10.018Z,33.96
2017-09-20T15:59:46.458Z,33.20
2017-09-20T16:02:17.954Z,33.00
2017-09-20T16:04:49.161Z,31.35
2017-09-20T16:07:20.287Z,30.24
2017-09-20T16:12:12.427Z,29.49
2017-09-20T16:17:48.912Z,25.86
2017-09-20T16:20:22.415Z,25.20
2017-09-20T16:22:53.500Z,24.80
2017-09-20T16:25:25.023Z,24.12
2017-09-20T16:27:56.564Z,24.13
2017-09-20T16:30:28.172Z,24.51
2017-09-20T16:32:59.314Z,23.89
2017-09-20T16:35:30.413Z,23.17
2017-09-20T16:38:03.274Z,22.67
2017-09-20T16:43:39.836Z,20.98
2017-09-20T16:46:12.165Z,20.53
2017-09-20T16:51:48.529Z,20.03
2017-09-20T16:54:23.912Z,19.71
2017-09-20T16:56:56.727Z,19.62
2017-09-20T16:59:28.271Z,19.36
2017-09-20T17:01:59.630Z,19.06
2017-09-20T17:07:30.659Z,18.72
2017-09-20T17:10:06.406Z,18.62
2017-09-20T17:12:37.887Z,18.41
2017-09-20T17:15:31.430Z,18.30
2017-09-20T17:18:05.102Z,18.21
2017-09-20T17:23:41.594Z,17.93
2017-09-20T17:26:12.785Z,17.89
2017-09-20T17:28:44.058Z,17.77
2017-09-20T17:31:15.892Z,17.71
2017-09-20T17:33:47.234Z,17.54
2017-09-20T17:36:18.366Z,17.42
2017-09-20T17:38:49.719Z,17.27
2017-09-20T17:41:24.116Z,17.19
2017-09-20T17:43:55.229Z,17.13
2017-09-20T17:46:27.560Z,17.07
2017-09-20T17:48:58.998Z,17.02
2017-09-20T17:51:30.458Z,16.98
2017-09-20T17:54:03.193Z,16.93
2017-09-20T17:56:34.300Z,16.84
2017-09-20T17:59:06.043Z,16.72
2017-09-20T18:01:37.434Z,16.61
2017-09-20T18:04:08.684Z,16.56
2017-09-20T18:06:40.129Z,16.49
2017-09-20T18:09:12.156Z,16.37
2017-09-20T18:11:43.329Z,16.29
2017-09-20T18:14:14.894Z,16.25
2017-09-20T18:16:45.977Z,16.21
2017-09-20T18:19:17.295Z,16.18
2017-09-20T18:21:48.339Z,16.12
2017-09-20T18:24:20.331Z,16.05
2017-09-20T18:26:51.423Z,15.98
2017-09-20T18:29:23.412Z,15.92
2017-09-20T18:31:54.524Z,15.88
2017-09-20T18:34:26.594Z,15.84
2017-09-20T18:36:57.739Z,15.71
2017-09-20T18:39:28.874Z,15.65
2017-09-20T18:41:59.933Z,15.62
2017-09-20T18:44:31.437Z,15.52
2017-09-20T18:47:02.910Z,15.48
2017-09-20T18:49:34.575Z,15.47
2017-09-20T18:52:06.491Z,15.42
2017-09-20T18:54:39.623Z,15.39
2017-09-20T18:57:10.712Z,15.35
2017-09-20T18:59:42.105Z,15.26
2017-09-20T19:02:13.153Z,15.19
2017-09-20T19:04:44.305Z,15.18
2017-09-20T19:07:15.355Z,15.16
2017-09-20T19:09:46.459Z,15.16
2017-09-20T19:12:17.481Z,15.12
2017-09-20T19:14:49.050Z,15.11
2017-09-20T19:17:20.835Z,15.07
2017-09-20T19:19:52.295Z,15.06
2017-09-20T19:22:24.868Z,15.01
2017-09-20T19:24:56.303Z,14.97
2017-09-20T19:27:27.885Z,14.93
2017-09-20T19:29:59.311Z,14.83
2017-09-20T19:32:58.601Z,14.79
2017-09-20T19:35:30.283Z,14.72
2017-09-20T19:38:02.393Z,14.70
2017-09-20T19:40:34.063Z,14.69
2017-09-20T19:43:05.811Z,14.67
2017-09-20T19:45:37.568Z,14.68
2017-09-20T19:48:08.919Z,14.65
2017-09-20T19:50:45.293Z,14.63
2017-09-20T19:53:18.162Z,14.61
2017-09-20T19:55:53.345Z,14.59
2017-09-20T19:58:27.581Z,14.52
2017-09-20T20:03:41.258Z,14.46
2017-09-20T20:06:12.662Z,14.43
2017-09-20T20:08:43.852Z,14.40
2017-09-20T20:11:15.261Z,14.38
2017-09-20T20:13:46.416Z,14.37
2017-09-20T20:16:18.347Z,14.32
2017-09-20T20:18:51.343Z,14.25
2017-09-20T20:21:24.567Z,14.21
2017-09-20T20:23:56.018Z,14.22
2017-09-20T20:26:29.490Z,14.24
2017-09-20T20:29:00.967Z,14.22
2017-09-20T20:31:33.245Z,14.18
2017-09-20T20:34:06.175Z,14.19
2017-09-20T20:38:06.890Z,14.17
2017-09-20T20:40:37.961Z,14.10
2017-09-20T20:43:09.378Z,14.07
2017-09-20T20:45:40.515Z,14.02
2017-09-20T20:48:11.863Z,13.97
2017-09-20T20:50:44.223Z,13.95
2017-09-20T20:53:15.374Z,13.90
2017-09-20T20:55:46.476Z,13.90
2017-09-20T20:58:18.018Z,13.87
2017-09-20T21:00:49.130Z,13.85
2017-09-20T21:03:20.314Z,13.82
2017-09-20T21:05:51.510Z,13.80
2017-09-20T21:08:24.696Z,13.75
2017-09-20T21:10:56.220Z,13.73
2017-09-20T21:13:28.671Z,13.72
2017-09-20T21:16:00.120Z,13.69
2017-09-20T21:18:38.704Z,13.67
2017-09-20T21:21:13.636Z,13.63
2017-09-20T21:23:54.178Z,13.60
2017-09-20T21:29:42.578Z,13.52
2017-09-20T21:35:15.573Z,13.53
2017-09-20T21:37:46.648Z,13.51
2017-09-20T21:40:18.191Z,13.52
2017-09-20T21:42:49.556Z,13.48
2017-09-20T21:45:20.820Z,13.47
2017-09-20T21:47:51.904Z,13.45
2017-09-20T21:50:23.141Z,13.41
2017-09-20T21:52:54.566Z,13.36
2017-09-20T21:55:27.513Z,13.34
2017-09-20T21:57:58.689Z,13.31
2017-09-20T22:00:31.203Z,13.32
2017-09-20T22:03:03.670Z,13.29
2017-09-20T22:05:35.604Z,13.29
2017-09-20T22:08:07.797Z,13.23
2017-09-20T22:10:38.924Z,13.20
2017-09-20T22:13:10.055Z,13.17
2017-09-20T22:15:52.256Z,13.14
2017-09-20T22:18:34.253Z,13.10
2017-09-20T22:21:16.437Z,13.08
2017-09-20T22:23:58.423Z,13.11
2017-09-20T22:26:40.703Z,13.06
2017-09-20T22:29:11.841Z,13.02
2017-09-20T22:31:42.925Z,13.04
2017-09-20T22:34:14.431Z,13.03
2017-09-20T22:36:45.563Z,13.01
2017-09-20T22:39:17.552Z,12.99
2017-09-20T22:41:49.201Z,12.99
2017-09-20T22:44:20.294Z,13.00
2017-09-20T22:46:53.465Z,13.01
2017-09-20T22:49:28.610Z,12.96
2017-09-20T22:52:01.034Z,12.96
2017-09-20T22:57:32.137Z,12.92
2017-09-20T23:00:04.285Z,12.90
2017-09-20T23:02:35.781Z,12.91
2017-09-20T23:05:06.942Z,12.89
2017-09-20T23:07:38.352Z,12.85
2017-09-20T23:10:10.387Z,12.83
2017-09-20T23:12:41.538Z,12.83
2017-09-20T23:15:12.975Z,12.84
2017-09-20T23:17:44.036Z,12.85
2017-09-20T23:20:15.163Z,12.87
2017-09-20T23:22:46.569Z,12.85
2017-09-20T23:25:18.731Z,12.83
2017-09-20T23:27:50.311Z,12.83
2017-09-20T23:30:23.330Z,12.81
2017-09-20T23:32:54.412Z,12.76
2017-09-20T23:35:27.177Z,12.74
2017-09-20T23:37:58.252Z,12.72
2017-09-20T23:40:29.315Z,12.72
2017-09-20T23:43:01.595Z,12.70
2017-09-20T23:45:32.836Z,12.66
2017-09-20T23:48:05.162Z,12.62
2017-09-20T23:50:36.633Z,12.60
2017-09-20T23:53:09.091Z,12.58
2017-09-20T23:55:40.486Z,12.56
2017-09-20T23:58:12.894Z,12.54
